Time;durP1;ratioP1;P1;durP2;ratioP2;P2;SDS_P1;SDS_P2;PMS_P1;PMS_P2;Temp;Humidity;BMP_temperature;BMP_pressure;BME280_temperature;BME280_humidity;BME280_pressure;Samples;Min_cycle;Max_cycle;Signal;HPM_P1;HPM_P2
2021/07/31 00:00:48;;;;;;;1.10;1.00;;;22.40;72.00;;;;;;5055246;28;20076;-60
2021/07/31 00:03:14;;;;;;;1.20;1.10;;;22.40;72.00;;;;;;5055404;28;20094;-61
2021/07/31 00:05:40;;;;;;;1.20;0.95;;;22.40;72.00;;;;;;5051462;28;20065;-61
2021/07/31 00:08:05;;;;;;;1.13;1.02;;;22.40;72.00;;;;;;5055417;28;20049;-60
2021/07/31 00:10:31;;;;;;;1.42;0.98;;;22.40;72.00;;;;;;5054638;28;20114;-61
2021/07/31 00:12:57;;;;;;;1.10;0.82;;;22.40;72.00;;;;;;5053189;28;20429;-62
2021/07/31 00:15:23;;;;;;;1.20;1.02;;;22.40;72.00;;;;;;5054380;28;20041;-61
2021/07/31 00:17:49;;;;;;;1.20;1.10;;;22.40;72.00;;;;;;5054886;28;20480;-60
2021/07/31 00:20:15;;;;;;;0.98;0.98;;;22.40;72.00;;;;;;5054620;28;20099;-61
2021/07/31 00:22:42;;;;;;;1.20;1.10;;;22.40;72.00;;;;;;5054423;28;20041;-60
2021/07/31 00:25:08;;;;;;;1.33;1.23;;;22.40;72.00;;;;;;5053321;28;20467;-60
2021/07/31 00:27:34;;;;;;;0.95;0.90;;;22.40;72.00;;;;;;5053193;28;20124;-60
2021/07/31 00:30:00;;;;;;;1.17;1.08;;;22.40;72.00;;;;;;5053996;28;20175;-60
2021/07/31 00:32:25;;;;;;;1.17;1.08;;;22.40;72.00;;;;;;5054661;28;20053;-60
2021/07/31 00:34:51;;;;;;;1.15;1.00;;;22.40;72.00;;;;;;5053764;28;20052;-60
2021/07/31 00:37:17;;;;;;;1.70;1.02;;;22.40;72.10;;;;;;5051234;28;20041;-60
2021/07/31 00:39:42;;;;;;;1.30;1.20;;;22.40;72.00;;;;;;5053993;28;20413;-60
2021/07/31 00:42:09;;;;;;;1.80;1.33;;;22.40;72.10;;;;;;5054701;28;20090;-60
2021/07/31 00:44:36;;;;;;;1.02;0.95;;;22.40;72.10;;;;;;5054533;28;20073;-60
2021/07/31 00:47:02;;;;;;;1.20;1.10;;;22.40;72.00;;;;;;5051128;28;20041;-60
2021/07/31 00:49:30;;;;;;;1.27;1.13;;;22.40;72.00;;;;;;5053968;28;20497;-60
2021/07/31 00:51:57;;;;;;;1.17;0.90;;;22.40;72.00;;;;;;5054261;28;20551;-60
2021/07/31 00:54:23;;;;;;;1.45;0.90;;;22.40;72.00;;;;;;5053661;28;20045;-61
2021/07/31 00:56:49;;;;;;;0.90;0.80;;;22.30;72.10;;;;;;5053991;28;20099;-60
2021/07/31 00:59:15;;;;;;;3.55;1.20;;;22.40;72.10;;;;;;5050719;28;20474;-60
2021/07/31 01:01:41;;;;;;;1.60;1.20;;;22.40;72.00;;;;;;5054322;28;20440;-60
2021/07/31 01:04:07;;;;;;;1.42;1.00;;;22.40;72.10;;;;;;5054318;28;20045;-60
2021/07/31 01:06:33;;;;;;;2.15;1.15;;;22.40;72.00;;;;;;5053986;28;20055;-60
2021/07/31 01:09:01;;;;;;;1.20;1.10;;;22.30;72.00;;;;;;5052496;28;20136;-60
2021/07/31 01:11:27;;;;;;;1.75;1.00;;;22.40;72.10;;;;;;5053880;28;20072;-60
2021/07/31 01:13:54;;;;;;;1.40;1.30;;;22.30;72.00;;;;;;5053598;28;20495;-61
2021/07/31 01:16:20;;;;;;;1.02;0.93;;;22.40;72.10;;;;;;5053975;28;20049;-62
2021/07/31 01:18:45;;;;;;;0.75;0.75;;;22.30;72.00;;;;;;5049643;28;20087;-60
2021/07/31 01:21:40;;;;;;;1.90;1.25;;;22.30;72.00;;;;;;5053340;28;20116;-60
2021/07/31 01:24:07;;;;;;;1.15;1.05;;;22.30;72.00;;;;;;5050917;28;20045;-61
2021/07/31 01:26:47;;;;;;;1.98;0.93;;;22.30;72.10;;;;;;5053306;28;20041;-61
2021/07/31 01:29:15;;;;;;;1.23;0.90;;;22.30;72.10;;;;;;5049514;28;20119;-61
2021/07/31 01:31:42;;;;;;;1.65;1.10;;;22.30;72.10;;;;;;5050196;28;20060;-60
2021/07/31 01:34:07;;;;;;;1.23;0.90;;;22.30;72.10;;;;;;5051243;28;20107;-60
2021/07/31 01:36:33;;;;;;;1.27;0.90;;;22.30;72.10;;;;;;5053577;28;20045;-60
2021/07/31 01:39:00;;;;;;;1.00;0.90;;;22.30;72.10;;;;;;5053351;28;20079;-60
2021/07/31 01:41:27;;;;;;;0.90;0.90;;;22.30;72.10;;;;;;5049663;28;20183;-61
2021/07/31 01:43:54;;;;;;;1.65;1.02;;;22.30;72.10;;;;;;5050534;28;20484;-59
2021/07/31 01:46:20;;;;;;;1.27;1.00;;;22.30;72.10;;;;;;5053261;28;20139;-60
2021/07/31 01:48:46;;;;;;;1.13;0.95;;;22.30;72.10;;;;;;5053399;28;20041;-60
2021/07/31 01:51:13;;;;;;;0.85;0.85;;;22.30;72.10;;;;;;5052487;28;20052;-60
2021/07/31 01:53:44;;;;;;;1.52;1.33;;;22.30;72.80;;;;;;5050204;28;20045;-60
2021/07/31 01:56:11;;;;;;;1.33;0.98;;;22.30;72.10;;;;;;5052813;28;20120;-61
2021/07/31 01:58:37;;;;;;;1.08;0.90;;;22.20;72.00;;;;;;5053101;28;20045;-61
2021/07/31 02:01:03;;;;;;;1.13;0.70;;;22.30;72.10;;;;;;5051154;28;20048;-61
2021/07/31 02:03:29;;;;;;;1.27;1.08;;;22.30;72.40;;;;;;5050695;28;20098;-59
2021/07/31 02:05:54;;;;;;;1.33;0.90;;;22.30;72.10;;;;;;5052999;28;20127;-61
2021/07/31 02:08:21;;;;;;;1.00;0.90;;;22.30;72.10;;;;;;5052778;28;20048;-61
2021/07/31 02:10:46;;;;;;;1.58;1.15;;;22.30;72.10;;;;;;5052166;28;20057;-60
2021/07/31 02:13:12;;;;;;;1.20;1.10;;;22.20;72.00;;;;;;5051986;28;20048;-59
2021/07/31 02:15:43;;;;;;;0.80;0.80;;;22.30;72.10;;;;;;5052680;28;20057;-60
2021/07/31 02:18:09;;;;;;;0.80;0.80;;;22.30;72.10;;;;;;5050584;28;20103;-60
2021/07/31 02:20:36;;;;;;;1.08;0.98;;;22.30;72.10;;;;;;5052309;28;20070;-59
2021/07/31 02:23:05;;;;;;;0.95;0.85;;;22.30;72.10;;;;;;5046383;28;20045;-63
2021/07/31 02:25:31;;;;;;;1.13;1.02;;;22.30;72.10;;;;;;5052494;28;20490;-61
2021/07/31 02:27:57;;;;;;;1.33;1.00;;;22.30;72.10;;;;;;5052398;28;20048;-60
2021/07/31 02:30:23;;;;;;;1.38;0.90;;;22.30;72.10;;;;;;5052321;28;20037;-61
2021/07/31 02:32:49;;;;;;;1.05;0.90;;;22.30;72.10;;;;;;5051926;28;20048;-61
2021/07/31 02:35:15;;;;;;;1.63;1.10;;;22.30;72.10;;;;;;5049455;28;20068;-61
2021/07/31 02:37:41;;;;;;;1.27;0.90;;;22.30;72.10;;;;;;5052349;28;20049;-60
2021/07/31 02:40:08;;;;;;;1.05;0.88;;;22.30;72.10;;;;;;5052459;28;20052;-60
2021/07/31 02:42:34;;;;;;;1.30;0.95;;;22.30;72.10;;;;;;5051717;28;20406;-60
2021/07/31 02:45:01;;;;;;;1.38;0.93;;;22.20;72.00;;;;;;5049058;28;20052;-60
2021/07/31 02:47:28;;;;;;;1.33;1.20;;;22.20;72.00;;;;;;5050088;28;20063;-61
2021/07/31 02:49:54;;;;;;;0.93;0.80;;;22.20;72.00;;;;;;5052310;28;20045;-60
2021/07/31 02:52:20;;;;;;;2.15;1.20;;;22.20;72.00;;;;;;5051788;28;20056;-61
2021/07/31 02:54:46;;;;;;;1.52;1.20;;;22.20;72.10;;;;;;5050455;28;20551;-60
2021/07/31 02:57:12;;;;;;;1.38;1.02;;;22.20;72.00;;;;;;5056016;28;20049;-60
2021/07/31 02:59:38;;;;;;;2.17;0.90;;;22.20;72.10;;;;;;5058410;28;20499;-60
2021/07/31 03:02:04;;;;;;;0.98;0.90;;;22.20;72.10;;;;;;5058667;28;20052;-60
2021/07/31 03:04:30;;;;;;;1.50;1.00;;;22.20;72.00;;;;;;5058791;28;20041;-59
2021/07/31 03:06:56;;;;;;;1.10;1.00;;;22.20;72.10;;;;;;5056253;28;20049;-60
2021/07/31 03:09:23;;;;;;;1.00;0.90;;;22.20;72.00;;;;;;5058401;28;20068;-60
2021/07/31 03:11:49;;;;;;;1.42;1.10;;;22.20;72.10;;;;;;5058371;28;20404;-60
2021/07/31 03:14:15;;;;;;;1.17;1.00;;;22.20;72.10;;;;;;5058184;28;20044;-60
2021/07/31 03:16:41;;;;;;;1.30;1.15;;;22.20;72.10;;;;;;5057971;28;20045;-60
2021/07/31 03:19:07;;;;;;;1.05;0.95;;;22.20;72.10;;;;;;5058656;28;20044;-60
2021/07/31 03:21:32;;;;;;;0.98;0.85;;;22.20;72.10;;;;;;5058609;28;20052;-59
2021/07/31 03:24:00;;;;;;;1.13;1.02;;;22.20;72.10;;;;;;5058515;28;20056;-60
2021/07/31 03:26:26;;;;;;;1.13;1.02;;;22.20;72.10;;;;;;5058203;28;20090;-60
2021/07/31 03:28:52;;;;;;;1.45;1.00;;;22.20;72.10;;;;;;5058816;28;20124;-60
2021/07/31 03:31:21;;;;;;;1.25;1.00;;;22.20;72.10;;;;;;5058298;28;20060;-59
2021/07/31 03:33:48;;;;;;;1.52;1.15;;;22.20;72.10;;;;;;5058149;28;20037;-60
2021/07/31 03:36:13;;;;;;;1.30;1.10;;;22.20;72.10;;;;;;5058558;28;20401;-60
2021/07/31 03:38:39;;;;;;;1.00;0.90;;;22.20;72.10;;;;;;5055130;28;20045;-60
2021/07/31 03:41:05;;;;;;;0.90;0.82;;;22.20;72.10;;;;;;5052668;28;20063;-60
2021/07/31 03:43:30;;;;;;;1.52;1.30;;;22.20;72.10;;;;;;5058067;28;20044;-61
2021/07/31 03:45:56;;;;;;;1.27;1.17;;;22.20;72.10;;;;;;5058007;28;20043;-60
2021/07/31 03:48:22;;;;;;;1.17;0.93;;;22.20;72.10;;;;;;5055381;28;20445;-61
2021/07/31 03:50:48;;;;;;;1.02;0.73;;;22.20;72.10;;;;;;5058397;28;20487;-59
2021/07/31 03:53:14;;;;;;;1.08;0.98;;;22.20;72.10;;;;;;5057821;28;20041;-60
2021/07/31 03:55:46;;;;;;;0.90;0.90;;;22.20;72.10;;;;;;5058344;28;20103;-61
2021/07/31 03:58:14;;;;;;;1.00;0.90;;;22.20;72.10;;;;;;5057758;28;20045;-60
2021/07/31 04:00:43;;;;;;;1.17;1.08;;;22.20;72.10;;;;;;5054328;28;20107;-61
2021/07/31 04:03:11;;;;;;;1.10;1.00;;;22.20;72.10;;;;;;5056808;28;20051;-60
2021/07/31 04:05:40;;;;;;;0.77;0.70;;;22.20;72.10;;;;;;5057143;28;20477;-63
2021/07/31 04:08:06;;;;;;;1.50;1.10;;;22.20;72.10;;;;;;5052698;28;20075;-61
2021/07/31 04:10:35;;;;;;;1.10;1.00;;;22.10;72.00;;;;;;5051746;28;20057;-61
2021/07/31 04:13:01;;;;;;;1.13;1.02;;;22.10;72.00;;;;;;5054784;28;20041;-61
2021/07/31 04:15:28;;;;;;;1.30;1.05;;;22.10;72.00;;;;;;5055064;28;20053;-62
2021/07/31 04:17:54;;;;;;;1.33;1.00;;;22.10;72.00;;;;;;5054421;28;20048;-62
2021/07/31 04:20:20;;;;;;;1.10;0.80;;;22.10;72.10;;;;;;5054393;28;20057;-59
2021/07/31 04:22:47;;;;;;;1.40;1.00;;;22.10;72.00;;;;;;5055084;28;20128;-61
2021/07/31 04:25:13;;;;;;;2.03;0.98;;;22.10;72.00;;;;;;5051988;28;20140;-62
2021/07/31 04:27:39;;;;;;;1.02;0.93;;;22.10;72.00;;;;;;5053127;28;20493;-60
2021/07/31 04:30:06;;;;;;;1.17;1.08;;;22.10;72.00;;;;;;5047758;28;20049;-61
2021/07/31 04:32:35;;;;;;;1.20;1.00;;;22.10;72.00;;;;;;5047510;28;20116;-60
2021/07/31 04:35:14;;;;;;;1.33;1.10;;;22.10;72.00;;;;;;5049593;28;20084;-59
2021/07/31 04:37:41;;;;;;;1.40;0.98;;;22.10;72.00;;;;;;5050667;28;20597;-60
2021/07/31 04:40:08;;;;;;;0.80;0.80;;;22.10;72.00;;;;;;5050343;28;20471;-59
2021/07/31 04:42:33;;;;;;;1.38;1.20;;;22.10;72.00;;;;;;5045911;28;21543;-59
2021/07/31 04:44:59;;;;;;;1.80;0.80;;;22.10;72.00;;;;;;5049729;28;20095;-58
2021/07/31 04:47:25;;;;;;;1.10;1.00;;;22.10;72.00;;;;;;5050667;28;20056;-59
2021/07/31 04:49:51;;;;;;;1.17;1.08;;;22.10;72.00;;;;;;5050009;28;20036;-60
2021/07/31 04:52:17;;;;;;;1.58;1.17;;;22.10;72.00;;;;;;5050629;28;20051;-59
2021/07/31 04:54:43;;;;;;;2.35;1.10;;;22.10;72.00;;;;;;5050453;28;20044;-60
2021/07/31 04:57:09;;;;;;;1.35;0.95;;;22.10;72.00;;;;;;5050271;28;20071;-60
2021/07/31 04:59:35;;;;;;;0.85;0.77;;;22.10;72.00;;;;;;5050555;28;20136;-60
2021/07/31 05:02:01;;;;;;;1.25;0.90;;;22.10;72.00;;;;;;5047279;28;20079;-60
2021/07/31 05:04:26;;;;;;;1.30;1.20;;;22.10;72.00;;;;;;5050246;28;20100;-60
2021/07/31 05:06:53;;;;;;;1.40;1.13;;;22.10;72.00;;;;;;5050237;28;20044;-60
2021/07/31 05:09:21;;;;;;;1.10;0.93;;;22.10;72.00;;;;;;5049730;28;20662;-61
2021/07/31 05:11:46;;;;;;;1.52;1.00;;;22.10;72.00;;;;;;5047718;28;20041;-60
2021/07/31 05:14:14;;;;;;;1.52;1.33;;;22.10;72.00;;;;;;5050263;28;20390;-63
2021/07/31 05:16:40;;;;;;;0.90;0.90;;;22.10;72.00;;;;;;5048806;28;20080;-60
2021/07/31 05:19:05;;;;;;;2.70;1.00;;;22.10;72.00;;;;;;5044203;28;20726;-60
2021/07/31 05:21:31;;;;;;;0.80;0.80;;;22.10;72.00;;;;;;5049015;28;20045;-61
2021/07/31 05:23:57;;;;;;;1.15;0.90;;;22.10;72.00;;;;;;5049972;28;20115;-60
2021/07/31 05:26:23;;;;;;;1.52;0.85;;;22.10;72.00;;;;;;5050271;28;20072;-60
2021/07/31 05:28:48;;;;;;;1.40;1.00;;;22.10;72.00;;;;;;5049976;28;20106;-60
2021/07/31 05:31:21;;;;;;;1.42;1.08;;;22.10;72.00;;;;;;5049572;28;20383;-59
2021/07/31 05:33:47;;;;;;;0.90;0.90;;;22.10;72.00;;;;;;5046617;28;20072;-59
2021/07/31 05:36:13;;;;;;;1.50;0.80;;;22.10;72.00;;;;;;5049426;28;20073;-59
2021/07/31 05:38:38;;;;;;;1.27;1.10;;;22.10;72.00;;;;;;5049701;28;20044;-59
2021/07/31 05:41:04;;;;;;;1.35;0.95;;;22.10;72.00;;;;;;5049259;28;20041;-60
2021/07/31 05:43:30;;;;;;;1.10;1.00;;;22.10;72.00;;;;;;5048491;28;20440;-60
2021/07/31 05:45:56;;;;;;;1.40;0.88;;;22.10;72.00;;;;;;5048013;28;20064;-60
2021/07/31 05:48:21;;;;;;;1.08;0.90;;;22.10;72.00;;;;;;5049420;28;20124;-60
2021/07/31 05:50:47;;;;;;;1.63;1.02;;;22.10;72.00;;;;;;5049037;28;20482;-59
2021/07/31 05:53:13;;;;;;;1.05;0.88;;;22.10;72.00;;;;;;5049752;28;20047;-61
2021/07/31 05:55:39;;;;;;;1.60;1.10;;;22.10;72.00;;;;;;5048644;28;20045;-60
2021/07/31 05:58:04;;;;;;;1.17;0.80;;;22.10;72.00;;;;;;5043209;28;20078;-59
2021/07/31 06:00:30;;;;;;;1.85;1.17;;;22.10;72.00;;;;;;5045942;28;20053;-60
2021/07/31 06:02:56;;;;;;;1.17;1.08;;;22.10;72.00;;;;;;5049354;28;20116;-60
2021/07/31 06:05:22;;;;;;;1.05;0.70;;;22.10;72.00;;;;;;5046405;28;20045;-61
2021/07/31 06:07:47;;;;;;;1.95;1.08;;;22.10;72.00;;;;;;5048824;28;20083;-60
2021/07/31 06:10:13;;;;;;;1.52;1.00;;;22.10;72.00;;;;;;5048532;28;20053;-60
2021/07/31 06:12:39;;;;;;;1.90;1.13;;;22.10;72.00;;;;;;5048790;28;20497;-59
2021/07/31 06:15:05;;;;;;;1.35;0.90;;;22.10;72.00;;;;;;5049436;28;20053;-60
2021/07/31 06:17:30;;;;;;;2.08;1.20;;;22.10;72.00;;;;;;5046152;28;20071;-59
2021/07/31 06:19:56;;;;;;;1.40;1.10;;;22.10;72.00;;;;;;5048968;28;20040;-61
2021/07/31 06:22:22;;;;;;;2.75;1.42;;;22.10;72.00;;;;;;5048012;28;20052;-61
2021/07/31 06:24:48;;;;;;;2.47;0.95;;;22.10;72.00;;;;;;5048832;28;20051;-60
2021/07/31 06:27:14;;;;;;;2.38;1.33;;;22.00;71.90;;;;;;5049028;28;20051;-60
2021/07/31 06:29:41;;;;;;;2.50;1.38;;;22.10;72.00;;;;;;5048893;28;20045;-59
2021/07/31 06:32:06;;;;;;;2.22;1.00;;;22.00;71.90;;;;;;5045358;28;20041;-58
2021/07/31 06:34:32;;;;;;;2.03;1.00;;;22.10;72.00;;;;;;5048764;28;20461;-60
2021/07/31 06:36:58;;;;;;;2.53;1.30;;;22.10;72.00;;;;;;5048778;28;20086;-60
2021/07/31 06:39:25;;;;;;;1.75;1.10;;;22.10;72.00;;;;;;5048255;28;20051;-59
2021/07/31 06:41:51;;;;;;;1.70;0.80;;;22.10;72.00;;;;;;5048431;28;20040;-59
2021/07/31 06:44:17;;;;;;;2.65;1.10;;;22.00;71.90;;;;;;5048488;28;20044;-59
2021/07/31 06:46:42;;;;;;;2.13;1.30;;;22.10;72.00;;;;;;5048513;28;20072;-60
2021/07/31 06:49:08;;;;;;;1.85;1.10;;;22.10;72.00;;;;;;5048889;28;20258;-60
2021/07/31 06:51:36;;;;;;;3.40;1.48;;;22.00;71.90;;;;;;5048570;28;20041;-59
2021/07/31 06:54:02;;;;;;;2.00;1.33;;;22.00;71.90;;;;;;5048079;28;20040;-60
2021/07/31 06:56:28;;;;;;;2.20;1.20;;;22.10;71.90;;;;;;5046863;28;20065;-60
2021/07/31 06:58:54;;;;;;;3.55;1.27;;;22.10;71.90;;;;;;5048578;28;20056;-60
2021/07/31 07:01:19;;;;;;;2.38;1.13;;;22.00;71.90;;;;;;5048179;28;20048;-58
2021/07/31 07:03:47;;;;;;;1.83;1.20;;;22.10;71.90;;;;;;5048408;28;20048;-60
2021/07/31 07:06:13;;;;;;;1.42;1.13;;;22.00;71.90;;;;;;5048531;28;20092;-61
2021/07/31 07:08:39;;;;;;;4.20;1.60;;;22.10;71.90;;;;;;5048152;28;20500;-60
2021/07/31 07:11:06;;;;;;;2.33;0.98;;;22.10;71.90;;;;;;5047901;28;20052;-60
2021/07/31 07:13:31;;;;;;;2.92;1.40;;;22.00;71.80;;;;;;5047850;28;20041;-60
2021/07/31 07:15:57;;;;;;;1.85;1.58;;;22.10;71.90;;;;;;5048485;28;20098;-60
2021/07/31 07:18:23;;;;;;;2.35;1.40;;;22.00;71.80;;;;;;5048465;28;20045;-60
2021/07/31 07:20:48;;;;;;;2.08;1.13;;;22.10;72.30;;;;;;5048243;28;20056;-61
2021/07/31 07:23:15;;;;;;;2.78;1.67;;;22.10;71.90;;;;;;5046756;28;20051;-60
2021/07/31 07:25:44;;;;;;;2.90;1.48;;;22.10;71.90;;;;;;5048005;28;20497;-59
2021/07/31 07:28:10;;;;;;;2.63;1.52;;;22.10;71.90;;;;;;5043035;28;20048;-60
2021/07/31 07:30:36;;;;;;;2.30;1.30;;;22.10;71.90;;;;;;5048581;28;20045;-45
2021/07/31 07:33:03;;;;;;;3.58;1.38;;;22.10;71.90;;;;;;5047493;28;20503;-56
2021/07/31 07:35:29;;;;;;;3.63;1.23;;;22.10;71.90;;;;;;5048131;28;20052;-56
2021/07/31 07:37:56;;;;;;;1.98;1.23;;;22.10;71.90;;;;;;5048082;28;20043;-59
2021/07/31 07:40:23;;;;;;;4.22;1.48;;;22.10;71.90;;;;;;5047842;28;20064;-56
2021/07/31 07:42:49;;;;;;;2.45;1.48;;;22.10;71.90;;;;;;5048717;28;20053;-60
2021/07/31 07:45:14;;;;;;;3.25;1.60;;;22.10;71.90;;;;;;5048444;28;20132;-57
2021/07/31 07:47:40;;;;;;;3.47;1.80;;;22.10;71.90;;;;;;5048899;28;20115;-59
2021/07/31 07:50:07;;;;;;;1.73;1.40;;;22.10;72.00;;;;;;5051874;28;20106;-60
2021/07/31 07:52:33;;;;;;;3.15;1.35;;;22.10;72.10;;;;;;5051894;28;20128;-62
2021/07/31 07:54:59;;;;;;;2.38;1.25;;;22.10;72.00;;;;;;5051781;28;20787;-62
2021/07/31 07:57:26;;;;;;;2.10;1.27;;;22.10;72.10;;;;;;5049866;28;20049;-61
2021/07/31 07:59:52;;;;;;;2.35;1.30;;;22.10;72.10;;;;;;5049130;28;20051;-61
2021/07/31 08:02:17;;;;;;;3.08;1.42;;;22.10;72.10;;;;;;5051684;28;20421;-61
2021/07/31 08:04:46;;;;;;;1.63;1.10;;;22.10;72.10;;;;;;5048712;28;20052;-60
2021/07/31 08:07:12;;;;;;;1.67;1.10;;;22.10;72.10;;;;;;5051523;28;20079;-61
2021/07/31 08:09:42;;;;;;;2.95;1.45;;;22.10;72.00;;;;;;5050848;28;20121;-62
2021/07/31 08:12:08;;;;;;;2.78;1.27;;;22.10;72.00;;;;;;5051093;28;20080;-63
2021/07/31 08:14:35;;;;;;;2.45;1.25;;;22.10;72.00;;;;;;5049852;28;20045;-56
2021/07/31 08:17:01;;;;;;;2.72;1.30;;;22.10;72.70;;;;;;5053357;28;20044;-56
2021/07/31 08:19:27;;;;;;;2.58;1.58;;;22.10;72.00;;;;;;5032520;28;20067;-60
2021/07/31 08:21:53;;;;;;;2.63;1.33;;;22.10;72.00;;;;;;5047673;28;20135;-60
2021/07/31 08:24:19;;;;;;;2.10;1.30;;;22.10;72.50;;;;;;5050548;28;20548;-62
2021/07/31 08:26:45;;;;;;;3.30;1.33;;;22.10;72.00;;;;;;5050461;28;20585;-62
2021/07/31 08:29:11;;;;;;;2.55;1.27;;;22.10;72.00;;;;;;5050225;28;20056;-62
2021/07/31 08:31:40;;;;;;;1.77;1.17;;;22.10;72.00;;;;;;5050468;28;20053;-62
2021/07/31 08:34:05;;;;;;;3.30;1.30;;;22.10;72.00;;;;;;5049685;28;20128;-61
2021/07/31 08:36:31;;;;;;;2.08;1.17;;;22.10;72.00;;;;;;5050566;28;20132;-60
2021/07/31 08:38:57;;;;;;;2.63;1.00;;;22.10;72.00;;;;;;5050424;28;20052;-58
2021/07/31 08:41:23;;;;;;;3.72;1.30;;;22.10;72.00;;;;;;5050330;28;20044;-60
2021/07/31 08:43:49;;;;;;;1.98;1.00;;;22.10;72.00;;;;;;5050247;28;20052;-61
2021/07/31 08:46:15;;;;;;;1.77;1.13;;;22.10;72.00;;;;;;5050380;28;20055;-55
2021/07/31 08:48:42;;;;;;;2.47;1.40;;;22.10;72.10;;;;;;5050809;28;20489;-60
2021/07/31 08:51:09;;;;;;;1.80;1.00;;;22.20;72.20;;;;;;5050568;28;20052;-60
2021/07/31 08:53:35;;;;;;;2.40;1.17;;;22.20;72.20;;;;;;5050011;28;20045;-61
2021/07/31 08:56:00;;;;;;;1.88;1.33;;;22.20;72.20;;;;;;5049804;28;20135;-58
2021/07/31 08:58:27;;;;;;;1.90;1.40;;;22.20;72.10;;;;;;5049102;28;20083;-59
2021/07/31 09:00:55;;;;;;;1.75;1.13;;;22.20;72.00;;;;;;5050191;28;20044;-57
2021/07/31 09:03:22;;;;;;;2.83;1.25;;;22.20;72.10;;;;;;5050288;28;20422;-56
2021/07/31 09:05:48;;;;;;;1.90;1.70;;;22.20;72.30;;;;;;5050381;28;20048;-61
2021/07/31 09:08:15;;;;;;;1.42;1.20;;;22.20;72.60;;;;;;5050435;28;20062;-58
2021/07/31 09:10:45;;;;;;;1.98;1.25;;;22.20;72.60;;;;;;5051243;28;20076;-62
2021/07/31 09:13:18;;;;;;;2.28;1.10;;;22.10;72.50;;;;;;5053366;28;20631;-60
2021/07/31 09:15:47;;;;;;;1.90;1.27;;;22.20;72.50;;;;;;5052729;28;20041;-59
2021/07/31 09:18:33;;;;;;;2.03;0.98;;;22.10;72.50;;;;;;5053354;28;20041;-60
2021/07/31 09:21:09;;;;;;;2.22;1.00;;;22.20;72.70;;;;;;5051062;28;20450;-57
2021/07/31 09:23:46;;;;;;;2.88;1.40;;;22.10;72.70;;;;;;5053142;28;20057;-58
2021/07/31 09:26:30;;;;;;;1.75;1.17;;;22.10;72.80;;;;;;5052777;28;20413;-56
2021/07/31 09:29:00;;;;;;;3.60;1.20;;;22.10;72.90;;;;;;5050795;28;20044;-57
2021/07/31 09:31:27;;;;;;;2.75;1.30;;;22.10;73.00;;;;;;5052792;28;20036;-58
2021/07/31 09:33:55;;;;;;;2.42;1.27;;;22.20;73.20;;;;;;5049162;28;20045;-57
2021/07/31 09:36:21;;;;;;;3.30;1.20;;;22.10;73.30;;;;;;5052644;28;20069;-60
2021/07/31 09:38:49;;;;;;;2.58;1.10;;;22.20;73.50;;;;;;5052912;28;20122;-60
2021/07/31 09:41:23;;;;;;;1.42;1.17;;;22.20;73.60;;;;;;5050278;28;20155;-62
2021/07/31 09:43:58;;;;;;;2.38;1.40;;;22.20;73.70;;;;;;5052619;28;20080;-59
2021/07/31 09:46:36;;;;;;;;;;;22.20;73.70;;;;;;5052048;28;20037;-58
2021/07/31 09:49:04;;;;;;;2.15;1.08;;;22.20;73.60;;;;;;5048024;28;19924;-58
2021/07/31 09:51:33;;;;;;;2.20;1.20;;;22.20;73.80;;;;;;5049307;28;20044;-57
2021/07/31 09:54:01;;;;;;;1.30;0.95;;;22.20;73.70;;;;;;5045757;28;20045;-56
2021/07/31 09:56:29;;;;;;;1.95;1.30;;;22.20;73.80;;;;;;5045722;28;20104;-60
2021/07/31 09:58:58;;;;;;;1.67;0.93;;;22.20;73.70;;;;;;5046477;28;20048;-59
2021/07/31 10:01:27;;;;;;;3.35;1.17;;;22.20;73.70;;;;;;5048413;28;20045;-57
2021/07/31 10:03:55;;;;;;;2.20;1.20;;;22.20;73.80;;;;;;5048581;28;20056;-56
2021/07/31 10:06:21;;;;;;;1.65;1.13;;;22.20;73.80;;;;;;5047258;28;20075;-61
2021/07/31 10:08:47;;;;;;;1.90;1.30;;;22.20;73.80;;;;;;5048263;28;20041;-61
2021/07/31 10:11:13;;;;;;;1.98;1.05;;;22.20;73.80;;;;;;5048624;28;20041;-62
2021/07/31 10:13:39;;;;;;;3.35;1.50;;;22.20;73.80;;;;;;5048509;28;20056;-59
2021/07/31 10:16:05;;;;;;;1.20;1.00;;;22.20;73.80;;;;;;5045488;28;20119;-58
2021/07/31 10:18:31;;;;;;;3.22;0.90;;;22.20;73.80;;;;;;5047570;28;20072;-60
2021/07/31 10:21:05;;;;;;;1.95;0.90;;;22.30;73.90;;;;;;5047032;28;21186;-60
2021/07/31 10:23:55;;;;;;;3.03;1.40;;;22.20;73.90;;;;;;5047995;28;20049;-57
2021/07/31 10:26:21;;;;;;;2.40;1.05;;;22.30;73.80;;;;;;5047364;28;20509;-58
2021/07/31 10:28:47;;;;;;;1.95;1.17;;;22.30;73.90;;;;;;5048228;28;20044;-55
2021/07/31 10:31:33;;;;;;;2.53;1.42;;;22.20;73.80;;;;;;5048073;28;20500;-61
2021/07/31 10:33:59;;;;;;;2.90;1.50;;;22.30;73.80;;;;;;5045957;28;20078;-61
2021/07/31 10:36:35;;;;;;;1.42;0.90;;;22.30;73.90;;;;;;5045207;28;20049;-62
2021/07/31 10:39:20;;;;;;;1.55;0.80;;;22.30;73.90;;;;;;5046294;28;20060;-62
2021/07/31 10:41:56;;;;;;;1.77;1.20;;;22.30;73.80;;;;;;5047235;28;20052;-60
2021/07/31 10:44:22;;;;;;;1.15;0.80;;;22.30;73.90;;;;;;5028681;28;20073;-61
2021/07/31 10:46:48;;;;;;;1.58;1.00;;;22.30;73.90;;;;;;5041336;28;20126;-62
2021/07/31 10:49:33;;;;;;;2.45;1.00;;;22.30;73.90;;;;;;5047339;28;20102;-60
2021/07/31 10:51:58;;;;;;;2.07;1.00;;;22.30;73.80;;;;;;5048655;28;20052;-62
2021/07/31 10:55:00;;;;;;;1.60;1.10;;;22.30;73.90;;;;;;5048349;28;20421;-62
2021/07/31 10:57:54;;;;;;;1.63;1.15;;;22.30;73.90;;;;;;5048210;28;20131;-60
2021/07/31 11:00:24;;;;;;;1.50;0.90;;;22.30;74.60;;;;;;5039462;28;20041;-60
2021/07/31 11:02:50;;;;;;;1.55;0.90;;;22.30;74.00;;;;;;5048476;28;20508;-61
2021/07/31 11:05:17;;;;;;;2.03;1.08;;;22.30;74.00;;;;;;5047141;28;20056;-62
2021/07/31 11:07:57;;;;;;;2.30;1.10;;;22.30;74.00;;;;;;5048469;28;20063;-62
2021/07/31 11:10:56;;;;;;;1.05;0.88;;;22.30;73.80;;;;;;5048319;28;20053;-59
2021/07/31 11:13:22;;;;;;;3.22;1.20;;;22.40;73.70;;;;;;5026093;28;20144;-52
2021/07/31 11:15:59;;;;;;;2.42;1.20;;;22.30;73.80;;;;;;5026299;28;20223;-59
2021/07/31 11:18:25;;;;;;;1.52;0.93;;;22.40;73.70;;;;;;5024453;28;20080;-58
2021/07/31 11:20:52;;;;;;;1.67;1.00;;;22.30;73.70;;;;;;5010590;28;20068;-58
2021/07/31 11:23:19;;;;;;;2.15;1.10;;;22.40;73.70;;;;;;5010100;28;20042;-57
2021/07/31 11:25:45;;;;;;;2.08;1.00;;;22.40;73.80;;;;;;5007177;28;20540;-61
2021/07/31 11:28:11;;;;;;;1.77;1.20;;;22.40;73.80;;;;;;5009910;28;20176;-61
2021/07/31 11:30:42;;;;;;;1.77;1.00;;;22.40;73.80;;;;;;5010686;28;20549;-61
2021/07/31 11:33:26;;;;;;;2.38;0.90;;;22.40;73.70;;;;;;5010006;28;20169;-60
2021/07/31 11:35:57;;;;;;;1.33;0.80;;;22.30;73.50;;;;;;5009197;28;20053;-54
2021/07/31 11:38:34;;;;;;;1.20;1.10;;;22.40;73.60;;;;;;5009691;28;20041;-60
2021/07/31 11:41:04;;;;;;;1.25;0.90;;;22.40;73.50;;;;;;5010092;28;20803;-62
2021/07/31 11:43:41;;;;;;;2.25;1.08;;;22.40;73.50;;;;;;5005541;28;20264;-55
2021/07/31 11:46:07;;;;;;;1.13;0.95;;;22.40;73.40;;;;;;5008641;28;20077;-57
2021/07/31 11:48:33;;;;;;;1.20;1.00;;;22.40;73.50;;;;;;5009818;28;20172;-59
2021/07/31 11:51:01;;;;;;;1.25;0.88;;;22.40;73.50;;;;;;5051159;28;20792;-57
2021/07/31 11:53:26;;;;;;;1.38;1.00;;;22.40;73.50;;;;;;5049394;28;20075;-59
2021/07/31 11:56:28;;;;;;;2.00;1.67;;;22.40;73.50;;;;;;5051903;28;20083;-54
2021/07/31 11:58:55;;;;;;;2.17;1.40;;;22.40;73.20;;;;;;5050012;28;20114;-56
2021/07/31 12:01:21;;;;;;;2.75;1.65;;;22.40;73.20;;;;;;5051005;28;20045;-55
2021/07/31 12:03:48;;;;;;;2.20;1.35;;;22.40;73.30;;;;;;5048463;28;20052;-58
2021/07/31 12:06:31;;;;;;;2.55;1.17;;;22.50;73.40;;;;;;5051489;28;20073;-54
2021/07/31 12:09:01;;;;;;;2.70;1.23;;;22.50;73.40;;;;;;5050421;28;20135;-55
2021/07/31 12:11:39;;;;;;;2.42;1.55;;;22.50;73.60;;;;;;5051252;28;20175;-55
2021/07/31 12:14:26;;;;;;;5.45;1.83;;;22.40;73.60;;;;;;5051748;28;20473;-56
2021/07/31 12:16:52;;;;;;;3.13;1.80;;;22.50;73.60;;;;;;5051628;28;20073;-47
2021/07/31 12:19:18;;;;;;;2.47;1.85;;;22.50;73.70;;;;;;5052029;28;20080;-51
2021/07/31 12:21:44;;;;;;;3.67;1.90;;;22.50;73.70;;;;;;5051494;28;20110;-56
2021/07/31 12:24:17;;;;;;;1.40;1.30;;;22.50;73.70;;;;;;5051078;28;20056;-53
2021/07/31 12:26:52;;;;;;;5.13;2.13;;;22.50;73.70;;;;;;5051421;28;20501;-58
2021/07/31 12:29:40;;;;;;;;;;;22.50;73.50;;;;;;5050761;28;20064;-52
2021/07/31 12:32:25;;;;;;;4.75;2.00;;;22.50;73.10;;;;;;5051496;28;19927;-60
2021/07/31 12:34:52;;;;;;;2.80;1.42;;;22.50;73.00;;;;;;5051189;28;20132;-59
2021/07/31 12:37:18;;;;;;;4.85;2.15;;;22.50;73.00;;;;;;5051255;28;20041;-59
2021/07/31 12:39:44;;;;;;;3.75;2.00;;;22.50;72.80;;;;;;5051372;28;20405;-60
2021/07/31 12:42:10;;;;;;;3.90;1.80;;;22.60;72.70;;;;;;5050922;28;20690;-59
2021/07/31 12:44:38;;;;;;;2.60;1.58;;;22.60;72.50;;;;;;5051051;28;20059;-61
2021/07/31 12:47:05;;;;;;;1.90;1.40;;;22.60;72.40;;;;;;5050330;28;20072;-61
2021/07/31 12:49:33;;;;;;;2.75;1.40;;;22.60;72.30;;;;;;5047109;28;20049;-60
2021/07/31 12:51:58;;;;;;;3.03;1.40;;;22.60;72.20;;;;;;5047201;28;20904;-61